Terminal Aerodrome Forecast
Issued by NWS Grand Junction, CO

Home | Current Version | Previous Version | Text Only | Print | Product List | Glossary On
Versions: 1 2 3 4 5 6 7 8 9 10 11 12 13 14 15 16 17 18 19 20 21 22 23 24 25 26 27 28 29 30 31 32 33 34
774
FTUS45 KGJT 261129
TAFGJT
TAF
KGJT 261129Z 2612/2712 36006KT P6SM BKN060 OVC110
     FM261500 34005KT P6SM SCT080
     FM270000 28006KT P6SM SCT250
     FM270200 05006KT P6SM SCT200
     FM270500 09006KT P6SM SCT200
     FM270800 11006KT P6SM SCT200=

USA.gov is the U.S. government's official web portal to all federal, state and local government web resources and services.